Time;durP1;ratioP1;P1;durP2;ratioP2;P2;SDS_P1;SDS_P2;PMS_P1;PMS_P2;Temp;Humidity;BMP_temperature;BMP_pressure;BME280_temperature;BME280_humidity;BME280_pressure;Samples;Min_cycle;Max_cycle;Signal;HPM_P1;HPM_P2
2022/08/19 00:01:38;;;;;;;12.02;8.65;;;;;;;26.34;62.59;99850.72;4951300;28;20062;-70
2022/08/19 00:04:06;;;;;;;18.58;8.73;;;;;;;26.18;65.17;99854.88;4951348;28;20062;-70
2022/08/19 00:06:31;;;;;;;15.52;8.18;;;;;;;26.21;65.33;99876.81;4950210;28;20028;-71
2022/08/19 00:08:59;;;;;;;21.73;8.90;;;;;;;26.08;64.90;99883.47;4943273;28;20101;-71
2022/08/19 00:11:27;;;;;;;19.75;9.35;;;;;;;26.05;64.48;99880.91;4933336;29;20091;-72
2022/08/19 00:13:56;;;;;;;16.60;8.80;;;;;;;25.85;64.74;99874.56;4931890;29;20028;-72
2022/08/19 00:16:22;;;;;;;16.65;8.82;;;;;;;25.61;65.15;99866.59;4931923;29;20088;-72
2022/08/19 00:18:48;;;;;;;22.65;9.48;;;;;;;25.66;65.26;99892.88;4931894;29;20463;-73
2022/08/19 00:21:14;;;;;;;17.35;9.55;;;;;;;25.74;64.95;99898.72;4931705;29;20036;-72
2022/08/19 00:23:40;;;;;;;20.75;9.32;;;;;;;25.76;64.56;99896.06;4931976;28;20058;-69
2022/08/19 00:26:07;;;;;;;22.13;9.00;;;;;;;25.74;64.83;99901.38;4931409;28;20482;-69
2022/08/19 00:28:35;;;;;;;17.38;9.15;;;;;;;25.71;64.86;99897.97;4931809;28;20036;-70
2022/08/19 00:31:02;;;;;;;26.35;10.13;;;;;;;25.75;64.51;99883.75;4931447;28;20110;-69
2022/08/19 00:33:32;;;;;;;21.85;8.95;;;;;;;25.74;64.79;99884.66;4931878;28;20123;-72
2022/08/19 00:35:59;;;;;;;17.98;8.90;;;;;;;25.74;64.89;99879.38;4931410;28;20063;-69
2022/08/19 00:38:24;;;;;;;22.33;9.65;;;;;;;25.65;64.36;99862.91;4931276;29;20040;-70
2022/08/19 00:40:50;;;;;;;22.88;10.30;;;;;;;25.70;64.36;99870.69;4931521;29;20023;-73
2022/08/19 00:43:20;;;;;;;18.48;10.07;;;;;;;25.70;65.13;99881.25;4931537;29;20035;-72
2022/08/19 00:45:47;;;;;;;19.98;9.95;;;;;;;25.59;64.73;99881.63;4931880;28;20397;-70
2022/08/19 00:48:13;;;;;;;30.27;9.90;;;;;;;25.49;65.35;99877.56;4931519;29;20122;-69
2022/08/19 00:50:42;;;;;;;27.92;9.98;;;;;;;25.47;65.63;99885.56;4931311;29;20028;-72
2022/08/19 00:53:14;;;;;;;29.77;11.10;;;;;;;25.40;66.16;99884.03;4931261;28;20031;-69
2022/08/19 00:55:44;;;;;;;25.73;9.85;;;;;;;25.35;66.53;99878.88;4932100;28;20035;-73
2022/08/19 00:58:13;;;;;;;23.13;10.25;;;;;;;25.32;66.23;99884.28;4931294;28;20115;-72
2022/08/19 01:00:38;;;;;;;23.27;9.50;;;;;;;25.34;66.10;99884.22;4931342;29;20083;-73
2022/08/19 01:03:10;;;;;;;22.08;9.88;;;;;;;25.37;65.68;99883.28;4931045;29;20090;-70
2022/08/19 01:05:37;;;;;;;22.85;10.43;;;;;;;25.25;65.66;99866.91;4931034;29;20448;-72
2022/08/19 01:08:05;;;;;;;20.70;9.18;;;;;;;25.42;65.40;99883.97;4931249;28;20054;-73
2022/08/19 01:10:35;;;;;;;17.23;9.30;;;;;;;25.27;65.49;99864.19;4930683;29;20524;-72
2022/08/19 01:13:02;;;;;;;17.63;9.52;;;;;;;25.47;65.03;99890.84;4931195;29;20035;-71
2022/08/19 01:15:43;;;;;;;17.50;9.90;;;;;;;25.49;64.88;99885.50;4931622;28;20452;-70
2022/08/19 01:18:11;;;;;;;12.57;8.57;;;;;;;25.39;65.31;99881.47;4929416;28;20421;-73
2022/08/19 01:20:38;;;;;;;17.02;9.05;;;;;;;25.22;65.56;99864.34;4931494;28;20028;-69
2022/08/19 01:23:04;;;;;;;14.13;9.40;;;;;;;25.38;65.58;99891.16;4930856;29;20035;-70
2022/08/19 01:25:35;;;;;;;12.90;8.57;;;;;;;25.27;65.88;99883.56;4930774;29;20034;-72
2022/08/19 01:28:02;;;;;;;15.18;9.45;;;;;;;25.19;65.99;99875.03;4930928;29;20031;-73
2022/08/19 01:30:34;;;;;;;19.92;9.52;;;;;;;25.20;66.15;99882.03;4931217;28;20035;-73
2022/08/19 01:33:00;;;;;;;17.45;9.88;;;;;;;25.12;67.44;99879.66;4930863;29;20065;-71
2022/08/19 01:35:28;;;;;;;17.02;9.60;;;;;;;24.97;68.54;99878.38;4931060;28;20039;-73
2022/08/19 01:37:57;;;;;;;22.45;10.00;;;;;;;24.86;69.53;99888.41;4930922;29;20046;-71
2022/08/19 01:40:27;;;;;;;21.00;10.38;;;;;;;24.66;70.31;99881.09;4930432;29;20051;-72
2022/08/19 01:42:53;;;;;;;18.50;10.38;;;;;;;24.70;69.82;99886.25;4943817;28;20032;-73
2022/08/19 01:45:20;;;;;;;16.20;9.75;;;;;;;24.62;69.26;99888.22;4930515;28;20414;-72
2022/08/19 01:47:47;;;;;;;21.17;9.23;;;;;;;24.39;69.66;99888.94;4930504;29;20036;-73
2022/08/19 01:50:13;;;;;;;16.38;10.27;;;;;;;24.03;71.23;99897.84;4930367;29;20038;-70
2022/08/19 01:52:40;;;;;;;13.40;8.77;;;;;;;24.10;70.63;99892.41;4930847;29;20115;-73
2022/08/19 01:55:08;;;;;;;13.68;9.65;;;;;;;23.85;71.72;99898.31;4930327;29;20068;-73
2022/08/19 01:57:34;;;;;;;12.63;9.17;;;;;;;23.92;71.30;99897.28;4978081;28;20040;-72
2022/08/19 02:00:01;;;;;;;13.13;9.90;;;;;;;23.90;71.24;99888.50;4930571;28;20093;-72
2022/08/19 02:02:27;;;;;;;18.83;10.32;;;;;;;23.89;70.50;99877.09;4949758;28;20035;-70
2022/08/19 02:04:52;;;;;;;11.85;9.95;;;;;;;23.96;70.85;99885.72;4949778;28;20050;-69
2022/08/19 02:07:21;;;;;;;15.02;9.32;;;;;;;24.01;71.10;99889.13;4949263;28;20043;-71
2022/08/19 02:09:47;;;;;;;12.32;9.40;;;;;;;23.97;71.18;99882.19;4949220;28;20481;-72
2022/08/19 02:12:13;;;;;;;11.98;9.88;;;;;;;24.00;71.23;99891.78;4949181;28;20081;-70
2022/08/19 02:14:38;;;;;;;16.10;9.93;;;;;;;24.00;71.53;99892.66;4949482;28;20441;-69
2022/08/19 02:17:04;;;;;;;12.80;9.23;;;;;;;24.11;70.97;99892.34;4949480;28;20023;-72
2022/08/19 02:19:32;;;;;;;14.23;9.77;;;;;;;24.19;70.37;99890.38;4949212;28;20035;-72
2022/08/19 02:21:58;;;;;;;11.18;9.48;;;;;;;24.13;70.57;99879.13;4949093;28;20481;-75
2022/08/19 02:24:24;;;;;;;13.35;9.68;;;;;;;24.18;70.53;99898.31;4949109;28;20032;-69
2022/08/19 02:26:49;;;;;;;13.27;9.80;;;;;;;24.10;70.83;99897.66;4949224;28;20108;-71
2022/08/19 02:29:15;;;;;;;11.02;9.52;;;;;;;24.00;71.55;99911.13;4948987;28;20031;-72
2022/08/19 02:31:40;;;;;;;14.50;9.63;;;;;;;23.75;71.89;99887.16;4948637;28;20040;-71
2022/08/19 02:34:06;;;;;;;11.82;9.77;;;;;;;23.88;72.34;99898.25;4948982;28;20519;-74
2022/08/19 02:36:31;;;;;;;13.55;10.15;;;;;;;23.88;71.74;99882.41;4946644;28;20039;-71
2022/08/19 02:38:57;;;;;;;15.50;9.93;;;;;;;23.98;72.02;99910.28;4949058;28;20389;-71
2022/08/19 02:41:26;;;;;;;14.65;10.70;;;;;;;24.08;71.29;99918.81;4943278;28;20035;-71
2022/08/19 02:43:52;;;;;;;13.18;10.30;;;;;;;24.06;71.36;99910.06;4949040;28;20173;-73
2022/08/19 02:46:28;;;;;;;11.10;10.00;;;;;;;24.13;71.06;99913.41;4947822;28;20055;-72
2022/08/19 02:48:57;;;;;;;14.02;10.35;;;;;;;24.15;70.56;99922.13;4948647;28;20050;-71
2022/08/19 02:51:28;;;;;;;11.60;9.90;;;;;;;24.23;70.42;99922.78;4945911;28;20031;-71
2022/08/19 02:53:54;;;;;;;12.88;10.48;;;;;;;24.27;69.94;99931.50;4948530;28;20039;-71
2022/08/19 02:56:20;;;;;;;14.65;10.35;;;;;;;24.23;69.90;99926.28;4952240;28;20432;-71
2022/08/19 02:58:47;;;;;;;10.90;9.65;;;;;;;24.13;70.09;99922.19;4949906;28;20043;-69
2022/08/19 03:01:21;;;;;;;11.32;10.23;;;;;;;24.05;71.13;99935.59;4945926;28;20115;-70
2022/08/19 03:03:47;;;;;;;11.32;10.02;;;;;;;24.08;70.77;99939.06;4953221;28;20104;-71
2022/08/19 03:06:14;;;;;;;12.38;9.75;;;;;;;23.85;71.47;99941.38;4940340;28;20104;-72
2022/08/19 03:08:42;;;;;;;13.50;9.70;;;;;;;23.80;71.93;99951.16;4937166;28;20162;-72
2022/08/19 03:11:21;;;;;;;12.02;10.27;;;;;;;23.73;71.40;99942.53;4922916;28;20047;-71
2022/08/19 03:13:50;;;;;;;15.48;10.85;;;;;;;23.59;71.85;99932.34;4948485;28;20031;-70
2022/08/19 03:16:17;;;;;;;12.43;10.43;;;;;;;23.87;72.13;99954.50;4919548;28;20040;-72
2022/08/19 03:18:43;;;;;;;12.20;9.90;;;;;;;23.92;71.31;99951.78;4924164;28;20354;-72
2022/08/19 03:21:09;;;;;;;14.93;10.43;;;;;;;24.07;70.92;99956.63;4924977;28;20043;-71
2022/08/19 03:23:35;;;;;;;11.05;9.80;;;;;;;24.13;70.33;99945.06;4930864;28;20154;-72
2022/08/19 03:26:05;;;;;;;12.32;10.50;;;;;;;24.20;69.48;99954.50;4922929;28;20043;-72
2022/08/19 03:28:31;;;;;;;14.90;10.75;;;;;;;24.06;70.45;99962.81;4921152;28;20078;-73
2022/08/19 03:31:03;;;;;;;21.05;10.95;;;;;;;24.04;70.24;99962.84;4928267;28;20046;-69
2022/08/19 03:33:30;;;;;;;18.92;11.57;;;;;;;23.89;71.07;99968.50;4927107;28;20054;-70
2022/08/19 03:36:14;;;;;;;13.55;10.77;;;;;;;23.66;71.92;99959.41;4929593;28;20036;-70
2022/08/19 03:38:54;;;;;;;20.77;11.48;;;;;;;23.51;72.70;99965.94;4928104;28;20024;-73
2022/08/19 03:41:23;;;;;;;24.25;11.50;;;;;;;23.57;72.75;99973.69;4928012;28;20066;-73
2022/08/19 03:43:49;;;;;;;19.20;11.18;;;;;;;23.51;72.37;99941.38;4929109;28;20032;-75
2022/08/19 03:46:30;;;;;;;13.15;10.50;;;;;;;23.64;72.44;99974.41;4914998;28;20078;-70
2022/08/19 03:48:57;;;;;;;17.15;10.98;;;;;;;23.55;72.90;99954.44;4949071;28;20027;-69
2022/08/19 03:51:24;;;;;;;12.32;10.95;;;;;;;23.72;72.37;99977.69;4950838;28;20039;-70
2022/08/19 03:53:52;;;;;;;13.50;10.88;;;;;;;23.77;71.85;99976.75;4950885;28;20028;-70
2022/08/19 03:56:18;;;;;;;15.80;10.93;;;;;;;23.73;72.21;99966.25;4950885;28;20023;-72
2022/08/19 03:58:44;;;;;;;15.75;11.73;;;;;;;23.81;72.08;99987.16;4950898;28;20086;-71
2022/08/19 04:01:13;;;;;;;26.17;11.70;;;;;;;23.87;71.94;99976.44;4950702;28;20434;-72
2022/08/19 04:03:39;;;;;;;20.05;11.55;;;;;;;23.90;71.88;99988.69;4952401;28;20027;-72
2022/08/19 04:06:23;;;;;;;18.98;10.63;;;;;;;23.92;71.80;99989.53;4949570;28;20049;-71
2022/08/19 04:08:51;;;;;;;16.85;10.93;;;;;;;23.95;71.48;99980.69;4950083;28;20031;-70
2022/08/19 04:11:22;;;;;;;18.65;11.27;;;;;;;23.99;71.48;99984.97;4950478;28;20055;-71
2022/08/19 04:13:50;;;;;;;23.25;11.63;;;;;;;23.98;71.50;99981.47;4950938;28;20034;-73
2022/08/19 04:16:17;;;;;;;18.17;11.57;;;;;;;23.76;72.54;99954.78;4951088;28;20027;-73
2022/08/19 04:18:42;;;;;;;23.35;12.35;;;;;;;23.82;72.64;99988.03;4933762;28;20031;-72
2022/08/19 04:21:14;;;;;;;21.58;11.98;;;;;;;23.77;72.17;99995.19;4950931;28;20033;-73
2022/08/19 04:23:40;;;;;;;15.57;12.68;;;;;;;23.89;71.82;99994.88;4950748;28;20455;-72
2022/08/19 04:26:06;;;;;;;18.77;13.50;;;;;;;23.97;72.14;99997.34;4951381;28;20031;-70
2022/08/19 04:28:31;;;;;;;17.05;12.73;;;;;;;23.95;72.33;99973.66;4950666;28;20481;-74
2022/08/19 04:30:57;;;;;;;15.60;11.88;;;;;;;24.13;73.18;99993.38;4949540;28;20571;-70
2022/08/19 04:33:24;;;;;;;15.15;11.32;;;;;;;24.25;72.88;99994.84;4949799;28;20037;-73
2022/08/19 04:35:52;;;;;;;29.50;12.05;;;;;;;24.26;71.82;99999.19;4949953;28;20039;-74
2022/08/19 04:38:20;;;;;;;21.17;11.95;;;;;;;24.37;70.41;100007.69;4948527;28;20050;-70
2022/08/19 04:43:35;;;;;;;14.90;11.20;;;;;;;24.55;69.79;100000.16;4931557;28;20472;-70
2022/08/19 04:46:08;;;;;;;14.77;10.48;;;;;;;24.65;69.64;99996.38;4933766;28;20036;-72
2022/08/19 04:48:35;;;;;;;14.10;9.98;;;;;;;24.73;69.70;99995.28;4931547;28;20027;-70
2022/08/19 04:51:00;;;;;;;16.35;10.27;;;;;;;24.59;68.98;99964.00;4943857;28;20408;-73
2022/08/19 04:53:28;;;;;;;15.90;10.35;;;;;;;24.71;69.19;99983.00;4939723;28;20102;-71
2022/08/19 04:56:07;;;;;;;16.08;10.80;;;;;;;24.84;68.16;99996.69;4934692;28;20119;-69
2022/08/19 04:58:34;;;;;;;15.65;11.50;;;;;;;24.47;69.64;100013.56;4931545;28;20039;-68
2022/08/19 05:00:59;;;;;;;19.95;11.15;;;;;;;23.89;71.53;99958.81;4937377;28;20050;-70
2022/08/19 05:03:25;;;;;;;17.05;11.90;;;;;;;23.72;73.46;100008.47;4938601;28;20425;-68
2022/08/19 05:05:51;;;;;;;19.05;11.00;;;;;;;23.84;73.30;100012.56;4933976;28;20028;-68
2022/08/19 05:08:20;;;;;;;24.35;11.77;;;;;;;23.82;75.72;100007.34;4930297;28;20085;-71
2022/08/19 05:10:47;;;;;;;18.77;11.23;;;;;;;23.87;75.52;100021.25;4929866;28;20536;-70
2022/08/19 05:13:14;;;;;;;16.98;12.45;;;;;;;23.81;75.76;100002.97;4936380;28;20103;-71
2022/08/19 05:15:40;;;;;;;17.30;12.38;;;;;;;23.93;75.69;100020.28;4930740;28;20650;-69
2022/08/19 05:23:34;;;;;;;17.38;12.68;;;;;;;24.11;73.61;100015.44;4932552;28;20101;-69
2022/08/19 05:26:00;;;;;;;23.65;12.57;;;;;;;24.01;74.32;100025.34;4947762;28;20035;-68
2022/08/19 05:28:27;;;;;;;19.17;12.23;;;;;;;24.26;75.44;100025.56;4949428;28;20096;-71
2022/08/19 05:30:55;;;;;;;21.80;11.93;;;;;;;24.35;74.35;100014.78;4949005;28;20488;-71
2022/08/19 05:33:21;;;;;;;19.83;12.45;;;;;;;24.54;73.32;100006.34;4956557;28;20054;-72
2022/08/19 05:35:49;;;;;;;20.80;13.20;;;;;;;24.66;72.02;100006.03;4948893;28;20101;-68
2022/08/19 05:38:15;;;;;;;18.85;10.75;;;;;;;24.57;71.85;99976.38;4948997;28;20031;-71
2022/08/19 05:40:41;;;;;;;16.58;11.38;;;;;;;24.68;71.22;99985.72;4950051;28;20510;-71
2022/08/19 05:43:07;;;;;;;15.57;11.23;;;;;;;25.01;70.46;100009.41;4949808;28;20035;-70
2022/08/19 05:45:38;;;;;;;17.33;10.80;;;;;;;25.18;69.72;100000.97;4949882;28;20469;-68
2022/08/19 05:48:04;;;;;;;13.07;10.80;;;;;;;25.28;69.61;100003.31;4949896;28;20042;-68
2022/08/19 05:50:30;;;;;;;15.55;10.65;;;;;;;25.22;68.97;99967.38;4949469;28;20118;-68
2022/08/19 05:52:55;;;;;;;19.63;11.27;;;;;;;25.57;68.83;99994.50;4949655;28;20110;-69
2022/08/19 05:55:22;;;;;;;19.35;11.52;;;;;;;25.71;67.10;99998.44;4948408;28;20469;-69
2022/08/19 05:57:48;;;;;;;19.98;11.48;;;;;;;25.75;67.58;99994.78;4949499;28;20183;-71
2022/08/19 06:00:14;;;;;;;24.10;10.73;;;;;;;25.81;67.83;99998.06;4949411;28;20031;-68
2022/08/19 06:02:40;;;;;;;16.48;10.65;;;;;;;25.95;67.31;99994.97;4949264;28;20516;-68
2022/08/19 06:05:08;;;;;;;15.43;10.77;;;;;;;26.06;67.36;100005.22;4949632;28;20027;-69
2022/08/19 06:07:36;;;;;;;19.98;11.10;;;;;;;26.17;67.25;100007.47;4949470;28;20031;-68
2022/08/19 06:10:04;;;;;;;22.48;12.10;;;;;;;26.29;66.30;100001.75;4949364;28;20024;-68
2022/08/19 06:12:34;;;;;;;18.10;11.82;;;;;;;26.33;66.18;99999.84;4955676;28;20485;-69
2022/08/19 06:15:11;;;;;;;17.65;11.35;;;;;;;26.43;67.50;100003.91;5049743;28;20037;-72
2022/08/19 06:17:38;;;;;;;18.23;11.68;;;;;;;26.52;65.98;100015.94;5049773;28;20025;-73
2022/08/19 06:20:06;;;;;;;20.48;11.48;;;;;;;26.22;65.96;99954.38;5049853;28;20033;-71
2022/08/19 06:22:37;;;;;;;23.60;10.70;;;;;;;26.65;64.67;100003.09;5050172;28;20025;-72
2022/08/19 06:25:06;;;;;;;14.13;9.73;;;;;;;26.84;62.73;100003.28;5049997;28;20033;-73
2022/08/19 06:27:33;;;;;;;17.85;10.80;;;;;;;26.98;62.49;99988.66;5049218;28;20025;-69
2022/08/19 06:29:58;;;;;;;13.32;9.27;;;;;;;27.17;61.76;99994.13;5052762;28;20090;-71
2022/08/19 06:32:24;;;;;;;13.48;9.70;;;;;;;27.35;61.54;99997.81;4987450;28;20055;-71
2022/08/19 06:34:49;;;;;;;10.65;9.55;;;;;;;27.37;60.40;99998.63;5004442;28;20033;-67
2022/08/19 06:37:15;;;;;;;13.40;9.32;;;;;;;27.49;60.33;99999.91;5053906;28;20444;-72
2022/08/19 06:39:43;;;;;;;13.82;8.95;;;;;;;27.56;60.31;99996.94;5054072;28;20021;-71
2022/08/19 06:42:11;;;;;;;12.52;9.38;;;;;;;27.72;59.12;100002.47;5035567;28;20021;-69
2022/08/19 06:44:39;;;;;;;10.52;8.75;;;;;;;27.87;58.63;100000.13;5053427;28;20025;-68
2022/08/19 06:47:08;;;;;;;10.80;9.40;;;;;;;27.97;60.43;100001.44;5053299;28;20044;-75
2022/08/19 06:49:35;;;;;;;13.03;9.00;;;;;;;28.04;58.56;99991.47;5028696;28;20409;-71
2022/08/19 06:52:01;;;;;;;16.05;8.73;;;;;;;28.21;58.23;100004.00;4941609;28;20324;-71
2022/08/19 06:54:29;;;;;;;11.13;8.73;;;;;;;28.21;57.46;99998.69;4933104;28;20058;-70
2022/08/19 06:56:56;;;;;;;13.25;9.10;;;;;;;28.17;56.88;99974.06;4899350;28;20085;-69
2022/08/19 06:59:26;;;;;;;10.40;8.05;;;;;;;28.46;55.76;99995.78;4933158;28;20032;-71
2022/08/19 07:01:55;;;;;;;33.03;16.67;;;;;;;28.57;56.39;100004.16;4932655;28;20039;-69
2022/08/19 07:04:23;;;;;;;12.10;9.32;;;;;;;28.50;55.87;99968.19;4933067;28;20035;-69
2022/08/19 07:06:50;;;;;;;16.97;9.60;;;;;;;28.75;57.17;100003.38;4932940;28;20031;-69
2022/08/19 07:09:17;;;;;;;21.40;9.00;;;;;;;28.75;57.09;100012.22;4932838;28;20298;-67
2022/08/19 07:11:48;;;;;;;12.77;9.55;;;;;;;28.81;59.25;100009.28;4933231;28;20052;-72
2022/08/19 07:14:17;;;;;;;13.60;9.20;;;;;;;28.79;54.93;100000.53;4940700;28;20031;-72
2022/08/19 07:16:45;;;;;;;19.08;9.43;;;;;;;28.77;56.59;99996.22;4934701;28;20032;-72
2022/08/19 07:19:12;;;;;;;10.98;8.65;;;;;;;28.88;56.80;100007.19;4932620;28;20058;-69
2022/08/19 07:21:37;;;;;;;13.50;9.15;;;;;;;28.92;57.35;100005.28;4915709;28;20496;-73
2022/08/19 07:24:03;;;;;;;16.02;8.80;;;;;;;28.97;54.71;100000.59;4932911;28;20020;-73
2022/08/19 07:26:33;;;;;;;13.20;8.98;;;;;;;28.92;53.57;99968.91;4932364;28;20097;-72
2022/08/19 07:29:01;;;;;;;10.38;8.68;;;;;;;29.28;52.81;100004.44;4932141;28;20112;-72
2022/08/19 07:31:27;;;;;;;12.40;8.60;;;;;;;29.42;51.98;100004.66;4932771;28;20040;-72
2022/08/19 07:33:57;;;;;;;13.02;8.73;;;;;;;29.43;51.84;99993.06;4932431;28;20032;-73
2022/08/19 07:36:30;;;;;;;11.75;8.68;;;;;;;29.60;51.15;99999.38;4932228;28;20023;-75
2022/08/19 07:38:56;;;;;;;8.93;7.72;;;;;;;29.60;51.50;99997.56;4932266;28;20438;-74
2022/08/19 07:41:25;;;;;;;13.68;8.88;;;;;;;29.58;51.17;99996.78;4931379;28;20024;-72
2022/08/19 07:43:51;;;;;;;9.70;8.33;;;;;;;29.71;50.95;99999.69;4947471;28;20070;-72
2022/08/19 07:46:20;;;;;;;14.25;8.52;;;;;;;29.71;50.57;99975.75;4951550;28;20168;-70
2022/08/19 07:48:46;;;;;;;13.53;9.10;;;;;;;29.81;51.53;100003.59;4951611;28;20113;-72
2022/08/19 07:51:14;;;;;;;10.70;9.38;;;;;;;29.92;50.41;100003.09;4951067;28;20031;-76
2022/08/19 07:53:40;;;;;;;13.40;9.20;;;;;;;29.94;50.07;99982.56;4951321;28;20039;-72
2022/08/19 07:56:06;;;;;;;11.93;8.90;;;;;;;30.06;50.22;99986.41;4951328;28;20024;-72
2022/08/19 07:58:35;;;;;;;13.88;8.98;;;;;;;30.23;49.13;99996.16;4951272;28;20039;-72
2022/08/19 08:01:02;;;;;;;11.57;8.68;;;;;;;30.37;49.38;99997.22;4951310;28;20034;-75
2022/08/19 08:11:49;;;;;;;14.43;9.40;;;;;;;29.93;49.57;99995.97;4950772;28;20562;-69
2022/08/19 08:14:22;;;;;;;15.18;9.25;;;;;;;29.92;49.26;99996.91;4916962;28;20398;-72
2022/08/19 08:16:48;;;;;;;16.02;9.18;;;;;;;30.07;52.08;99990.81;4950704;28;20038;-73
2022/08/19 08:19:14;;;;;;;13.95;8.73;;;;;;;30.02;49.35;99993.69;4950707;28;20031;-72
2022/08/19 08:21:41;;;;;;;15.85;8.93;;;;;;;30.12;48.20;99991.41;4950684;28;20035;-70
2022/08/19 08:24:06;;;;;;;12.48;9.32;;;;;;;30.34;47.41;99982.28;4950933;28;20023;-73
2022/08/19 08:26:32;;;;;;;11.60;8.90;;;;;;;30.33;47.67;99985.88;4950639;28;20042;-72
2022/08/19 08:28:57;;;;;;;13.73;9.38;;;;;;;30.37;47.57;99984.78;4950452;28;20027;-73
2022/08/19 08:31:23;;;;;;;11.75;8.55;;;;;;;30.51;46.28;99973.41;4950580;28;20046;-72
2022/08/19 08:33:49;;;;;;;11.63;8.52;;;;;;;30.66;45.21;99977.91;4950828;28;20039;-73
2022/08/19 08:36:14;;;;;;;11.68;8.45;;;;;;;30.78;45.13;99972.84;4950805;28;20053;-75
2022/08/19 08:38:45;;;;;;;15.07;8.68;;;;;;;30.95;47.35;99974.56;4950449;28;20166;-73
2022/08/19 08:41:14;;;;;;;10.68;7.85;;;;;;;30.94;46.08;99949.72;4950870;28;20118;-70
2022/08/19 08:43:43;;;;;;;11.65;7.82;;;;;;;31.19;44.30;99971.50;4950520;28;20035;-70
2022/08/19 08:46:09;;;;;;;;;;;;;;;31.21;43.90;99973.13;4950834;28;20173;-74
2022/08/19 08:49:11;;;;;;;8.63;7.72;;;;;;;31.21;43.73;99969.59;4950651;28;19914;-71
2022/08/19 08:51:47;;;;;;;8.80;7.45;;;;;;;31.35;41.54;99960.81;4909255;28;20985;-69
2022/08/19 08:54:17;;;;;;;10.60;7.30;;;;;;;31.27;42.17;99959.44;4909537;28;20512;-71
2022/08/19 08:56:44;;;;;;;9.20;7.43;;;;;;;31.42;43.14;99960.34;4909850;28;20894;-73
2022/08/19 08:59:16;;;;;;;9.73;6.90;;;;;;;31.44;41.38;99953.13;4909854;28;20542;-71
2022/08/19 09:01:42;;;;;;;11.55;7.72;;;;;;;31.56;45.63;99953.34;4909760;28;20071;-72
2022/08/19 09:04:07;;;;;;;9.60;7.78;;;;;;;31.67;45.10;99961.59;4909613;28;20048;-71
2022/08/19 09:07:00;;;;;;;11.55;7.15;;;;;;;31.76;43.96;99955.69;4909775;28;20032;-69
2022/08/19 09:09:39;;;;;;;13.68;7.53;;;;;;;31.94;39.23;99947.56;4909623;28;20044;-75
2022/08/19 09:12:04;;;;;;;;;;;;;;;32.04;39.07;99956.72;4910105;28;20481;-72
2022/08/19 09:14:45;;;;;;;8.23;7.00;;;;;;;31.86;39.46;99934.66;4909748;28;20050;-74
2022/08/19 09:17:13;;;;;;;9.63;7.15;;;;;;;32.27;39.44;99941.09;4906958;28;20076;-73
2022/08/19 09:20:00;;;;;;;10.32;7.10;;;;;;;32.43;37.81;99933.84;4900740;28;20083;-71
2022/08/19 09:22:26;;;;;;;10.13;7.13;;;;;;;32.51;43.09;99932.50;4900664;28;20568;-76
2022/08/19 09:24:52;;;;;;;8.95;7.47;;;;;;;32.68;42.59;99940.28;4900633;28;20541;-72
2022/08/19 09:27:23;;;;;;;9.90;6.82;;;;;;;32.70;37.13;99910.78;4901237;28;20029;-70
2022/08/19 09:29:49;;;;;;;11.20;7.25;;;;;;;33.01;40.99;99933.75;4939196;28;20556;-72
2022/08/19 09:32:15;;;;;;;7.47;6.78;;;;;;;33.11;40.82;99935.81;4997932;28;20126;-71
2022/08/19 09:34:41;;;;;;;7.25;6.25;;;;;;;33.30;35.36;99917.63;4949053;28;20065;-70
2022/08/19 09:37:06;;;;;;;8.38;6.88;;;;;;;33.53;35.59;99932.09;4949195;28;20397;-76
2022/08/19 09:39:32;;;;;;;7.60;6.80;;;;;;;33.70;35.23;99932.78;4949401;28;20035;-70
2022/08/19 09:41:57;;;;;;;10.68;6.90;;;;;;;33.75;38.73;99925.28;4947624;28;20019;-71
2022/08/19 09:44:23;;;;;;;10.30;6.40;;;;;;;33.83;36.11;99925.66;4940539;28;20039;-72
2022/08/19 09:46:48;;;;;;;12.50;6.65;;;;;;;33.86;36.82;99922.75;4937696;28;20032;-70
2022/08/19 09:49:16;;;;;;;9.30;6.45;;;;;;;33.80;37.13;99930.34;4939397;28;20055;-69
2022/08/19 09:51:42;;;;;;;8.00;6.13;;;;;;;33.57;34.00;99899.78;4946338;28;20397;-72
2022/08/19 09:54:08;;;;;;;7.22;6.53;;;;;;;33.80;36.29;99928.50;4949153;28;20068;-71
2022/08/19 09:56:33;;;;;;;6.97;5.85;;;;;;;33.90;36.38;99918.03;4949546;28;20035;-69
2022/08/19 09:58:59;;;;;;;9.30;6.30;;;;;;;34.08;36.35;99917.72;4949055;28;20432;-70
2022/08/19 10:01:30;;;;;;;8.60;6.05;;;;;;;34.19;35.75;99910.63;4949175;28;20055;-72
2022/08/19 10:03:58;;;;;;;8.68;6.18;;;;;;;34.30;34.38;99890.25;4950658;28;20024;-73
2022/08/19 10:06:28;;;;;;;8.45;6.13;;;;;;;34.10;34.36;99911.28;4961955;28;20479;-73
2022/08/19 10:08:54;;;;;;;7.10;6.07;;;;;;;34.14;34.06;99914.59;4942971;28;20058;-72
2022/08/19 10:11:20;;;;;;;7.85;5.90;;;;;;;34.01;32.71;99888.69;4964299;28;20487;-71
2022/08/19 10:13:46;;;;;;;8.85;5.88;;;;;;;34.32;33.81;99909.75;4941762;28;20024;-69
2022/08/19 10:16:17;;;;;;;7.68;5.70;;;;;;;34.57;33.00;99905.31;4943181;28;20106;-71
2022/08/19 10:18:43;;;;;;;8.98;6.05;;;;;;;34.69;32.59;99901.75;4944186;28;20107;-71
2022/08/19 10:21:21;;;;;;;7.25;5.57;;;;;;;34.33;32.20;99887.34;4942194;28;20102;-72
2022/08/19 10:23:50;;;;;;;9.67;6.30;;;;;;;34.55;31.93;99909.94;4938807;28;20094;-74
2022/08/19 10:26:19;;;;;;;7.28;5.72;;;;;;;34.63;32.19;99903.06;4942770;28;20027;-71
2022/08/19 10:28:45;;;;;;;7.15;6.45;;;;;;;34.82;31.35;99899.03;4943652;28;20089;-73
2022/08/19 10:31:14;;;;;;;6.25;5.65;;;;;;;34.98;30.40;99906.78;4941760;28;20025;-73
2022/08/19 10:33:41;;;;;;;7.70;6.05;;;;;;;35.21;32.85;99906.91;4942408;28;20084;-74
2022/08/19 10:36:10;;;;;;;9.65;6.20;;;;;;;35.36;31.87;99894.16;4943621;28;20034;-70
2022/08/19 10:38:37;;;;;;;9.25;6.13;;;;;;;35.55;30.02;99894.47;4941961;28;20059;-72
2022/08/19 10:41:12;;;;;;;8.80;5.82;;;;;;;35.72;31.40;99892.31;4940588;28;20031;-71
2022/08/19 10:43:39;;;;;;;12.60;5.85;;;;;;;35.58;31.01;99885.31;4945331;28;20481;-74
2022/08/19 10:46:08;;;;;;;9.35;6.30;;;;;;;35.81;29.07;99886.22;4946162;28;20081;-73
2022/08/19 10:48:34;;;;;;;7.13;5.80;;;;;;;35.89;29.17;99883.81;4933057;28;20028;-71
2022/08/19 10:53:44;;;;;;;7.40;5.88;;;;;;;36.22;30.64;99867.81;4932458;28;20551;-72
2022/08/19 10:58:54;;;;;;;6.28;5.15;;;;;;;35.75;30.45;99836.53;4931929;28;20030;-71
2022/08/19 11:01:20;;;;;;;7.07;5.60;;;;;;;35.76;30.51;99861.56;4931655;28;20472;-77
2022/08/19 11:03:45;;;;;;;7.55;5.22;;;;;;;36.04;30.15;99859.38;4930379;28;20039;-71
2022/08/19 11:06:11;;;;;;;8.75;5.88;;;;;;;36.22;31.20;99863.28;4931708;28;20024;-71
2022/08/19 11:08:38;;;;;;;7.68;5.35;;;;;;;35.98;30.21;99855.38;4934156;28;20046;-72
2022/08/19 11:11:06;;;;;;;10.32;5.40;;;;;;;36.35;27.49;99854.22;4920829;28;20510;-69
2022/08/19 11:13:37;;;;;;;6.05;5.45;;;;;;;36.43;27.28;99857.19;4931854;28;20555;-71
2022/08/19 11:16:08;;;;;;;5.85;5.25;;;;;;;36.39;29.14;99826.13;4930031;28;20020;-73
2022/08/19 11:18:37;;;;;;;7.20;5.80;;;;;;;36.57;29.44;99851.50;4931677;28;20102;-72
2022/08/19 11:21:07;;;;;;;7.82;5.40;;;;;;;36.79;26.84;99838.09;4934390;28;20039;-73
2022/08/19 11:23:33;;;;;;;10.32;5.70;;;;;;;36.75;27.90;99842.88;4931898;28;20110;-72
2022/08/19 11:25:59;;;;;;;6.03;5.25;;;;;;;36.47;26.95;99838.97;4931288;28;20081;-72
2022/08/19 11:28:24;;;;;;;7.07;5.30;;;;;;;36.55;28.38;99841.84;4931682;28;20563;-73
2022/08/19 11:30:50;;;;;;;6.80;5.47;;;;;;;36.66;26.73;99843.66;4931178;28;20039;-73
2022/08/19 11:33:15;;;;;;;7.28;5.45;;;;;;;36.69;27.82;99836.19;4931880;28;20455;-73
2022/08/19 11:35:41;;;;;;;6.90;5.43;;;;;;;36.56;27.87;99812.19;4932163;28;20536;-74
2022/08/19 11:38:06;;;;;;;9.00;5.80;;;;;;;36.62;30.56;99834.16;4937403;28;20459;-73
2022/08/19 11:40:33;;;;;;;7.45;5.60;;;;;;;36.46;27.23;99827.34;4931371;28;20122;-73
2022/08/19 11:42:58;;;;;;;7.45;5.85;;;;;;;36.53;28.93;99812.41;4943669;28;20035;-73
2022/08/19 11:45:26;;;;;;;6.82;5.60;;;;;;;36.71;27.01;99812.72;4951087;28;20399;-73
2022/08/19 11:47:53;;;;;;;6.80;5.40;;;;;;;36.91;29.09;99816.47;4948766;28;20023;-73
2022/08/19 11:50:19;;;;;;;6.20;5.60;;;;;;;37.10;26.41;99806.81;4950711;28;20050;-73